createdAt,value
2022-09-05T00:01:58.300Z,97108.06
2022-09-05T00:05:17.542Z,97121.69
2022-09-05T00:08:44.085Z,97122.16
2022-09-05T00:11:53.346Z,97125.00
2022-09-05T00:15:33.590Z,97119.31
2022-09-05T00:24:22.790Z,97122.63
2022-09-05T00:24:26.254Z,97123.09
2022-09-05T00:26:28.831Z,97119.59
2022-09-05T00:31:05.996Z,97125.59
2022-09-05T00:34:10.137Z,97120.53
2022-09-05T00:37:10.081Z,97123.84
2022-09-05T00:40:35.570Z,97127.94
2022-09-05T00:43:38.191Z,97131.94
2022-09-05T00:46:47.422Z,97122.41
2022-09-05T00:49:52.338Z,97139.66
2022-09-05T00:53:07.541Z,97134.91
2022-09-05T00:56:26.126Z,97132.84
2022-09-05T01:00:07.062Z,97128.72
2022-09-05T01:03:17.770Z,97133.28
2022-09-05T01:06:29.563Z,97145.06
2022-09-05T01:09:39.964Z,97131.28
2022-09-05T01:13:22.477Z,97136.97
2022-09-05T01:16:56.115Z,97131.09
2022-09-05T01:20:38.542Z,97144.38
2022-09-05T01:24:13.975Z,97141.22
2022-09-05T01:29:15.491Z,97145.91
2022-09-05T01:31:26.786Z,97146.25
2022-09-05T01:35:23.254Z,97135.16
2022-09-05T01:39:51.633Z,97144.19
2022-09-05T01:42:26.248Z,97142.75
2022-09-05T01:45:52.115Z,97139.25
2022-09-05T01:49:10.355Z,97141.97
2022-09-05T01:52:33.640Z,97144.09
2022-09-05T01:56:21.713Z,97139.13
2022-09-05T01:59:56.851Z,97141.47
2022-09-05T02:03:34.065Z,97143.00
2022-09-05T02:07:30.204Z,97138.59
2022-09-05T02:10:51.887Z,97145.09
2022-09-05T02:14:00.262Z,97134.94
2022-09-05T02:17:51.294Z,97132.97
2022-09-05T02:21:21.620Z,97136.31
2022-09-05T02:24:23.731Z,97139.13
2022-09-05T02:28:05.636Z,97145.00
2022-09-05T02:31:19.760Z,97133.56
2022-09-05T02:34:54.172Z,97141.22
2022-09-05T02:40:26.255Z,97135.88
2022-09-05T02:45:18.108Z,97137.38
2022-09-05T02:46:08.873Z,97136.50
2022-09-05T02:52:14.293Z,97137.84
2022-09-05T02:57:33.495Z,97131.34
2022-09-05T02:57:46.895Z,97136.00
2022-09-05T03:00:15.098Z,97127.56
2022-09-05T03:03:28.844Z,97132.28
2022-09-05T03:06:40.224Z,97125.31
2022-09-05T03:10:39.674Z,97124.50
2022-09-05T03:14:36.246Z,97118.75
2022-09-05T03:18:20.281Z,97127.19
2022-09-05T03:21:55.984Z,97116.59
2022-09-05T03:25:10.946Z,97118.03
2022-09-05T03:28:57.197Z,97128.69
2022-09-05T03:32:08.375Z,97131.72
2022-09-05T03:35:51.678Z,97123.19
2022-09-05T03:39:07.777Z,97128.13
2022-09-05T03:42:40.882Z,97120.44
2022-09-05T03:46:21.398Z,97124.81
2022-09-05T03:57:04.222Z,97126.56
2022-09-05T03:57:25.335Z,97126.84
2022-09-05T03:58:03.452Z,97130.38
2022-09-05T04:06:11.643Z,97128.28
2022-09-05T04:08:19.423Z,97130.13
2022-09-05T04:08:57.070Z,97125.84
2022-09-05T04:12:15.522Z,97121.50
2022-09-05T04:15:46.303Z,97119.56
2022-09-05T04:18:53.705Z,97126.88
2022-09-05T04:22:03.164Z,97129.06
2022-09-05T04:25:23.122Z,97136.44
2022-09-05T04:28:42.976Z,97133.44
2022-09-05T04:32:28.277Z,97131.66
2022-09-05T04:35:59.246Z,97135.22
2022-09-05T04:39:22.829Z,97131.84
2022-09-05T04:42:28.356Z,97128.00
2022-09-05T04:45:27.240Z,97140.59
2022-09-05T04:48:34.427Z,97143.28
2022-09-05T04:52:02.777Z,97149.56
2022-09-05T04:55:15.880Z,97155.09
2022-09-05T05:00:54.307Z,97158.97
2022-09-05T05:06:05.571Z,97159.28
2022-09-05T05:06:09.962Z,97152.66
2022-09-05T05:09:44.866Z,97163.50
2022-09-05T05:17:59.775Z,97167.59
2022-09-05T05:18:13.922Z,97162.47
2022-09-05T05:20:39.759Z,97169.38
2022-09-05T05:23:50.636Z,97173.69
2022-09-05T05:27:09.394Z,97172.28
2022-09-05T05:30:08.570Z,97173.66
2022-09-05T05:33:38.473Z,97182.28
2022-09-05T05:36:40.575Z,97182.09
2022-09-05T05:39:45.274Z,97172.06
2022-09-05T05:42:44.535Z,97186.00
2022-09-05T05:45:42.054Z,97177.34
2022-09-05T05:48:40.928Z,97185.34
2022-09-05T05:52:07.233Z,97178.69
2022-09-05T05:55:52.853Z,97180.72
2022-09-05T05:59:28.613Z,97168.34
2022-09-05T06:02:47.519Z,97165.13
2022-09-05T06:06:32.340Z,97167.63
2022-09-05T06:14:48.389Z,97172.81
2022-09-05T06:15:05.859Z,97176.06
2022-09-05T06:17:28.245Z,97178.88
2022-09-05T06:22:11.513Z,97156.94
2022-09-05T06:25:17.112Z,97159.31
2022-09-05T06:28:30.613Z,97171.16
2022-09-05T06:32:30.161Z,97170.13
2022-09-05T06:35:36.024Z,97169.53
2022-09-05T06:39:18.937Z,97177.53
2022-09-05T06:42:42.733Z,97171.88
2022-09-05T06:46:07.035Z,97158.44
2022-09-05T06:49:32.163Z,97161.34
2022-09-05T06:53:07.096Z,97156.13
2022-09-05T06:56:39.893Z,97160.75
2022-09-05T07:00:23.051Z,97163.81
2022-09-05T07:03:47.456Z,97161.72
2022-09-05T07:07:22.972Z,97159.19
2022-09-05T07:10:39.345Z,97159.81
2022-09-05T07:14:16.819Z,97165.97
2022-09-05T07:17:26.984Z,97167.19
2022-09-05T07:20:34.222Z,97165.88
2022-09-05T07:24:09.775Z,97166.34
2022-09-05T07:27:11.112Z,97168.53
2022-09-05T07:30:11.783Z,97163.50
2022-09-05T07:33:09.345Z,97158.00
2022-09-05T07:36:14.352Z,97165.84
2022-09-05T07:39:28.908Z,97157.22
2022-09-05T07:42:36.442Z,97151.50
2022-09-05T07:45:37.780Z,97155.56
2022-09-05T07:48:48.042Z,97149.69
2022-09-05T07:56:54.606Z,97154.84
2022-09-05T07:57:06.272Z,97150.66
2022-09-05T07:58:52.507Z,97141.63
2022-09-05T08:01:53.250Z,97138.19
2022-09-05T08:04:50.277Z,97142.88
2022-09-05T08:07:55.955Z,97143.78
2022-09-05T08:11:23.246Z,97141.00
2022-09-05T08:14:44.926Z,97137.28
2022-09-05T08:18:21.415Z,97135.22
2022-09-05T08:21:48.254Z,97135.22
2022-09-05T08:24:57.549Z,97137.94
2022-09-05T08:28:16.557Z,97142.53
2022-09-05T08:31:34.842Z,97133.78
2022-09-05T08:34:59.500Z,97137.38
2022-09-05T08:37:57.951Z,97126.63
2022-09-05T08:41:49.713Z,97136.75
2022-09-05T08:46:47.395Z,97129.56
2022-09-05T08:48:59.333Z,97122.28
2022-09-05T08:52:25.882Z,97128.81
2022-09-05T08:55:43.248Z,97124.50
2022-09-05T08:59:31.613Z,97115.78
2022-09-05T09:03:04.506Z,97111.47
2022-09-05T09:06:32.364Z,97121.75
2022-09-05T09:09:53.103Z,97105.91
2022-09-05T09:13:52.402Z,97110.28
2022-09-05T09:17:17.101Z,97111.16
2022-09-05T09:20:45.321Z,97116.00
2022-09-05T09:23:51.163Z,97118.16
2022-09-05T09:28:45.086Z,97109.53
2022-09-05T09:31:12.955Z,97107.34
2022-09-05T09:34:32.759Z,97104.53
2022-09-05T09:38:13.582Z,97113.59
2022-09-05T09:41:37.867Z,97114.72
2022-09-05T09:45:27.703Z,97098.66
2022-09-05T09:49:09.558Z,97104.38
2022-09-05T09:52:38.113Z,97104.91
2022-09-05T09:56:06.973Z,97102.63
2022-09-05T09:59:54.253Z,97100.13
2022-09-05T10:07:17.044Z,97098.59
2022-09-05T10:10:54.451Z,97099.06
2022-09-05T10:11:52.879Z,97093.25
2022-09-05T10:15:43.334Z,97085.75
2022-09-05T10:23:30.629Z,97078.78
2022-09-05T10:26:41.133Z,97075.72
2022-09-05T10:30:10.984Z,97078.63
2022-09-05T10:35:18.286Z,97077.50
2022-09-05T10:37:11.679Z,97076.22
2022-09-05T10:40:14.063Z,97070.09
2022-09-05T10:43:29.886Z,97070.22
2022-09-05T10:47:07.580Z,97058.25
2022-09-05T10:50:13.359Z,97058.34
2022-09-05T10:53:52.396Z,97055.44
2022-09-05T10:57:34.000Z,97053.00
2022-09-05T11:02:26.864Z,97047.75
2022-09-05T11:05:19.338Z,97030.91
2022-09-05T11:08:56.382Z,97028.47
2022-09-05T11:12:32.670Z,97022.00
2022-09-05T11:16:03.940Z,97014.56
2022-09-05T11:19:38.144Z,97002.47
2022-09-05T11:22:40.585Z,97006.72
2022-09-05T11:25:41.063Z,97004.91
2022-09-05T11:28:57.629Z,97005.97
2022-09-05T11:36:17.547Z,97010.44
2022-09-05T11:39:52.981Z,97001.72
2022-09-05T11:40:35.091Z,96992.38
2022-09-05T11:44:25.599Z,96991.56
2022-09-05T11:47:46.461Z,96994.44
2022-09-05T11:51:05.396Z,97004.97
2022-09-05T11:55:21.367Z,96996.63
2022-09-05T11:59:04.899Z,96995.50
2022-09-05T12:02:54.421Z,96993.66
2022-09-05T12:06:19.560Z,96983.28
2022-09-05T12:09:53.589Z,96990.09
2022-09-05T12:13:26.490Z,96986.94
2022-09-05T12:16:56.664Z,96988.09
2022-09-05T12:20:32.715Z,96978.97
2022-09-05T12:24:50.057Z,96977.25
2022-09-05T12:27:40.394Z,96972.66
2022-09-05T12:31:29.672Z,96971.09
2022-09-05T12:36:06.213Z,96965.59
2022-09-05T12:40:54.720Z,96962.78
2022-09-05T12:41:44.509Z,96971.22
2022-09-05T12:45:11.909Z,96961.75
2022-09-05T12:48:50.712Z,96954.91
2022-09-05T12:52:05.118Z,96952.84
2022-09-05T12:55:22.366Z,96948.47
2022-09-05T13:03:01.811Z,96962.28
2022-09-05T13:03:09.053Z,96953.16
2022-09-05T13:05:22.118Z,96932.56
2022-09-05T13:08:22.229Z,96924.00
2022-09-05T13:14:48.560Z,96925.09
2022-09-05T13:15:18.634Z,96924.00
2022-09-05T13:18:30.813Z,96917.81
2022-09-05T13:21:29.900Z,96926.63
2022-09-05T13:24:34.297Z,96931.53
2022-09-05T13:27:40.733Z,96928.31
2022-09-05T13:36:08.661Z,96917.06
2022-09-05T13:38:12.952Z,96916.34
2022-09-05T13:38:28.994Z,96914.06
2022-09-05T13:41:53.080Z,96912.88
2022-09-05T13:44:57.115Z,96910.84
2022-09-05T13:49:24.020Z,96909.66
2022-09-05T13:52:17.631Z,96895.16
2022-09-05T13:55:38.140Z,96887.41
2022-09-05T13:58:45.428Z,96883.75
2022-09-05T14:02:25.377Z,96884.13
2022-09-05T14:05:38.843Z,96877.75
2022-09-05T14:12:49.212Z,96863.63
2022-09-05T14:15:52.577Z,96867.22
2022-09-05T14:19:09.467Z,96867.19
2022-09-05T14:22:11.465Z,96867.03
2022-09-05T14:25:29.509Z,96871.50
2022-09-05T14:28:34.283Z,96862.66
2022-09-05T14:36:33.481Z,96865.13
2022-09-05T14:37:41.132Z,96871.00
2022-09-05T14:39:05.303Z,96864.63
2022-09-05T14:42:23.955Z,96861.94
2022-09-05T14:45:46.088Z,96858.31
2022-09-05T14:49:18.735Z,96857.06
2022-09-05T14:52:25.954Z,96864.19
2022-09-05T14:55:22.959Z,96857.56
2022-09-05T15:02:41.282Z,96855.66
2022-09-05T15:02:54.724Z,96855.84
2022-09-05T15:05:50.084Z,96846.41
2022-09-05T15:11:25.667Z,96836.75
2022-09-05T15:12:39.707Z,96846.56
2022-09-05T15:15:57.542Z,96848.25
2022-09-05T15:18:59.551Z,96843.56
2022-09-05T15:21:56.525Z,96846.31
2022-09-05T15:25:18.324Z,96854.16
2022-09-05T15:28:41.807Z,96845.56
2022-09-05T15:31:39.851Z,96851.00
2022-09-05T15:34:38.541Z,96847.09
2022-09-05T15:37:42.329Z,96852.97
2022-09-05T15:40:39.257Z,96843.19
2022-09-05T15:43:58.222Z,96840.84
2022-09-05T15:47:01.655Z,96839.25
2022-09-05T15:50:03.832Z,96833.78
2022-09-05T15:53:01.359Z,96836.13
2022-09-05T15:56:26.272Z,96841.22
2022-09-05T15:59:29.222Z,96840.44
2022-09-05T16:02:38.167Z,96835.34
2022-09-05T16:10:27.396Z,96842.78
2022-09-05T16:10:38.652Z,96830.63
2022-09-05T16:12:50.407Z,96839.53
2022-09-05T16:20:34.583Z,96836.53
2022-09-05T16:23:25.292Z,96832.97
2022-09-05T16:23:32.506Z,96839.84
2022-09-05T16:26:25.646Z,96841.00
2022-09-05T16:29:28.163Z,96835.16
2022-09-05T16:32:29.565Z,96831.34
2022-09-05T16:35:26.987Z,96829.19
2022-09-05T16:38:38.134Z,96826.72
2022-09-05T16:42:02.317Z,96839.16
2022-09-05T16:45:24.626Z,96830.75
2022-09-05T16:49:18.531Z,96834.88
2022-09-05T16:52:53.175Z,96834.78
2022-09-05T16:56:13.585Z,96824.81
2022-09-05T16:59:17.705Z,96831.25
2022-09-05T17:03:03.284Z,96829.09
2022-09-05T17:06:40.491Z,96817.38
2022-09-05T17:09:43.564Z,96822.63
2022-09-05T17:12:41.234Z,96812.16
2022-09-05T17:15:52.210Z,96821.78
2022-09-05T17:18:52.617Z,96824.00
2022-09-05T17:23:05.824Z,96813.97
2022-09-05T17:29:28.584Z,96832.97
2022-09-05T17:29:32.370Z,96819.44
2022-09-05T17:32:39.777Z,96819.69
2022-09-05T17:36:41.197Z,96823.84
2022-09-05T17:40:22.406Z,96826.44
2022-09-05T17:43:33.561Z,96818.81
2022-09-05T17:46:34.248Z,96824.50
2022-09-05T17:49:42.974Z,96825.25
2022-09-05T17:53:25.841Z,96826.44
2022-09-05T17:56:33.569Z,96835.06
2022-09-05T17:59:31.460Z,96832.91
2022-09-05T18:02:33.412Z,96832.25
2022-09-05T18:06:03.653Z,96828.56
2022-09-05T18:09:09.054Z,96836.31
2022-09-05T18:12:31.596Z,96839.63
2022-09-05T18:15:43.842Z,96830.97
2022-09-05T18:19:27.859Z,96835.00
2022-09-05T18:22:20.177Z,96841.28
2022-09-05T18:25:28.399Z,96842.13
2022-09-05T18:28:41.511Z,96842.91
2022-09-05T18:31:40.998Z,96843.81
2022-09-05T18:34:41.495Z,96851.50
2022-09-05T18:37:39.390Z,96852.19
2022-09-05T18:40:53.279Z,96851.56
2022-09-05T18:44:19.852Z,96862.59
2022-09-05T18:47:51.281Z,96860.09
2022-09-05T18:51:15.611Z,96861.97
2022-09-05T18:54:20.102Z,96869.38
2022-09-05T18:57:28.850Z,96874.66
2022-09-05T19:00:44.868Z,96878.53
2022-09-05T19:03:45.360Z,96870.66
2022-09-05T19:06:48.441Z,96876.97
2022-09-05T19:10:34.429Z,96877.63
2022-09-05T19:13:35.915Z,96872.25
2022-09-05T19:16:47.297Z,96877.16
2022-09-05T19:20:30.573Z,96881.13
2022-09-05T19:23:33.256Z,96885.13
2022-09-05T19:26:33.725Z,96876.66
2022-09-05T19:36:49.970Z,96878.22
2022-09-05T19:37:08.703Z,96879.00
2022-09-05T19:37:12.706Z,96874.91
2022-09-05T19:42:42.094Z,96879.88
2022-09-05T19:47:42.234Z,96874.69
2022-09-05T19:47:55.814Z,96873.59
2022-09-05T19:49:37.144Z,96872.72
2022-09-05T19:52:39.446Z,96871.22
2022-09-05T19:55:38.531Z,96874.97
2022-09-05T19:58:35.380Z,96870.13
2022-09-05T20:01:32.359Z,96862.13
2022-09-05T20:04:44.192Z,96853.34
2022-09-05T20:07:51.127Z,96860.22
2022-09-05T20:10:59.502Z,96870.41
2022-09-05T20:14:42.681Z,96865.28
2022-09-05T20:17:43.039Z,96861.84
2022-09-05T20:21:07.244Z,96861.13
2022-09-05T20:24:04.301Z,96856.47
2022-09-05T20:27:02.279Z,96861.59
2022-09-05T20:30:10.212Z,96860.16
2022-09-05T20:33:35.676Z,96868.16
2022-09-05T20:43:08.132Z,96857.81
2022-09-05T20:43:14.583Z,96861.31
2022-09-05T20:43:40.186Z,96858.63
2022-09-05T20:54:08.168Z,96853.13
2022-09-05T20:54:09.466Z,96862.44
2022-09-05T20:54:26.432Z,96857.63
2022-09-05T20:57:00.232Z,96852.53
2022-09-05T21:00:16.667Z,96851.25
2022-09-05T21:03:31.326Z,96854.09
2022-09-05T21:06:34.811Z,96857.41
2022-09-05T21:09:32.308Z,96859.69
2022-09-05T21:12:45.200Z,96851.22
2022-09-05T21:15:52.928Z,96843.59
2022-09-05T21:18:51.838Z,96850.84
2022-09-05T21:22:02.193Z,96855.22
2022-09-05T21:25:22.363Z,96843.88
2022-09-05T21:28:36.584Z,96845.31
2022-09-05T21:31:45.725Z,96841.03
2022-09-05T21:34:53.730Z,96853.13
2022-09-05T21:37:51.157Z,96849.16
2022-09-05T21:40:52.706Z,96855.63
2022-09-05T21:47:33.786Z,96859.91
2022-09-05T21:47:49.746Z,96857.19
2022-09-05T21:50:31.143Z,96872.34
2022-09-05T21:57:00.418Z,96869.84
2022-09-05T21:59:25.705Z,96866.94
2022-09-05T22:00:20.350Z,96869.53
2022-09-05T22:03:24.405Z,96877.41
2022-09-05T22:06:21.354Z,96873.72
2022-09-05T22:09:19.945Z,96874.34
2022-09-05T22:12:30.086Z,96872.66
2022-09-05T22:15:29.590Z,96875.34
2022-09-05T22:18:26.518Z,96874.78
2022-09-05T22:21:35.112Z,96872.75
2022-09-05T22:24:34.691Z,96862.84
2022-09-05T22:27:33.700Z,96859.78
2022-09-05T22:30:30.554Z,96859.25
2022-09-05T22:33:27.472Z,96856.53
2022-09-05T22:36:26.272Z,96853.94
2022-09-05T22:39:36.295Z,96861.94
2022-09-05T22:42:34.025Z,96861.78
2022-09-05T22:45:33.160Z,96853.09
2022-09-05T22:48:30.208Z,96865.88
2022-09-05T22:51:27.020Z,96849.19
2022-09-05T22:54:23.952Z,96851.88
2022-09-05T22:57:20.778Z,96852.84
2022-09-05T23:00:17.794Z,96852.47
2022-09-05T23:03:14.649Z,96850.97
2022-09-05T23:06:11.554Z,96854.56
2022-09-05T23:09:09.810Z,96848.13
2022-09-05T23:12:06.799Z,96849.91
2022-09-05T23:15:04.244Z,96854.63
2022-09-05T23:18:02.240Z,96867.94
2022-09-05T23:21:04.274Z,96856.13
2022-09-05T23:24:01.116Z,96842.84
2022-09-05T23:26:58.019Z,96838.47
2022-09-05T23:29:54.853Z,96839.34
2022-09-05T23:32:52.234Z,96834.06
2022-09-05T23:35:49.056Z,96833.81
2022-09-05T23:38:45.903Z,96827.53
2022-09-05T23:41:42.711Z,96826.00
2022-09-05T23:44:39.547Z,96830.72
2022-09-05T23:47:37.201Z,96830.19
2022-09-05T23:50:34.030Z,96828.94
2022-09-05T23:53:30.881Z,96825.78
2022-09-05T23:56:27.719Z,96828.31
2022-09-05T23:59:24.548Z,96835.59
